Time;durP1;ratioP1;P1;durP2;ratioP2;P2;SDS_P1;SDS_P2;PMS_P1;PMS_P2;Temp;Humidity;BMP_temperature;BMP_pressure;BME280_temperature;BME280_humidity;BME280_pressure;Samples;Min_cycle;Max_cycle;Signal;HPM_P1;HPM_P2
2020/12/29 00:01:49;;;;;;;38.40;21.17;;;;;;;1.07;87.95;100239.30;1770001;79;21247;-73
2020/12/29 00:04:24;;;;;;;34.48;18.80;;;;;;;1.06;88.00;100250.34;1763069;79;21219;-74
2020/12/29 00:06:58;;;;;;;35.63;20.62;;;;;;;1.07;88.06;100237.98;1774201;79;22807;-74
2020/12/29 00:09:27;;;;;;;33.58;18.27;;;;;;;1.08;88.08;100235.66;1776858;79;21191;-71
2020/12/29 00:11:57;;;;;;;39.83;21.52;;;;;;;1.09;88.15;100220.20;1748571;80;21175;-71
2020/12/29 00:14:24;;;;;;;34.63;19.32;;;;;;;1.05;88.16;100221.08;1732037;81;21199;-72
2020/12/29 00:16:52;;;;;;;36.08;20.37;;;;;;;1.05;88.20;100222.39;1736134;81;21214;-73
2020/12/29 00:19:24;;;;;;;35.43;21.23;;;;;;;1.07;88.25;100227.47;1736467;81;21935;-74
2020/12/29 00:21:51;;;;;;;32.73;18.42;;;;;;;1.08;88.29;100233.83;1738200;81;21604;-75
2020/12/29 00:24:19;;;;;;;37.35;20.17;;;;;;;1.09;88.32;100234.16;1733973;81;21135;-73
2020/12/29 00:26:50;;;;;;;32.95;18.27;;;;;;;1.13;88.31;100239.30;1733333;82;21159;-73
2020/12/29 00:29:17;;;;;;;28.83;15.95;;;;;;;1.13;88.30;100252.45;1738090;81;21243;-72
2020/12/29 00:31:45;;;;;;;34.92;19.30;;;;;;;1.13;88.30;100253.77;1737229;81;21494;-74
2020/12/29 00:34:13;;;;;;;40.73;21.97;;;;;;;1.12;88.32;100250.05;1736305;81;21207;-74
2020/12/29 00:36:41;;;;;;;36.20;21.15;;;;;;;1.11;88.35;100220.78;1736416;81;21186;-73
2020/12/29 00:39:09;;;;;;;28.12;16.02;;;;;;;1.13;88.36;100215.62;1737540;81;21211;-73
2020/12/29 00:41:39;;;;;;;37.42;20.50;;;;;;;1.17;88.38;100212.89;1733745;81;21638;-73
2020/12/29 00:44:06;;;;;;;37.83;20.37;;;;;;;1.15;88.37;100213.62;1736010;81;21200;-73
2020/12/29 00:46:34;;;;;;;33.15;19.45;;;;;;;1.14;88.38;100213.80;1736220;82;21679;-74
2020/12/29 00:49:04;;;;;;;37.53;21.52;;;;;;;1.13;88.42;100211.69;1735897;82;21164;-73
2020/12/29 00:51:32;;;;;;;42.05;24.02;;;;;;;1.12;88.41;100207.95;1735629;81;21705;-73
2020/12/29 00:54:01;;;;;;;37.60;20.70;;;;;;;1.15;88.49;100216.25;1736669;81;21208;-74
2020/12/29 00:56:32;;;;;;;42.35;23.57;;;;;;;1.19;88.50;100226.37;1738467;81;21231;-74
2020/12/29 00:59:00;;;;;;;37.63;21.05;;;;;;;1.20;88.50;100227.47;1736957;81;21222;-73
2020/12/29 01:01:29;;;;;;;41.02;22.85;;;;;;;1.25;88.54;100228.99;1735087;81;21200;-74
2020/12/29 01:04:14;;;;;;;41.03;23.90;;;;;;;1.35;88.50;100212.77;1800503;79;23606;-72
2020/12/29 01:06:42;;;;;;;39.70;22.13;;;;;;;1.32;88.49;100228.98;1807226;78;21152;-73
2020/12/29 01:09:11;;;;;;;38.75;21.60;;;;;;;1.35;88.49;100216.23;1789050;78;21223;-72
2020/12/29 01:11:39;;;;;;;34.85;19.90;;;;;;;1.39;88.45;100210.05;1784208;78;21160;-72
2020/12/29 01:14:10;;;;;;;31.45;18.07;;;;;;;1.44;88.44;100198.89;1782265;79;21184;-71
2020/12/29 01:16:40;;;;;;;33.95;19.65;;;;;;;1.45;88.36;100184.23;1781783;78;21639;-71
2020/12/29 01:19:08;;;;;;;39.58;20.92;;;;;;;1.44;88.30;100189.17;1782535;79;21758;-72
2020/12/29 01:21:37;;;;;;;36.45;21.25;;;;;;;1.43;88.28;100199.91;1809653;77;21365;-73
2020/12/29 01:24:05;;;;;;;40.03;22.15;;;;;;;1.45;88.25;100210.55;1764728;79;22044;-72
2020/12/29 01:26:32;;;;;;;35.90;21.10;;;;;;;1.48;88.26;100209.30;1781648;78;21252;-72
2020/12/29 01:29:00;;;;;;;35.15;20.17;;;;;;;1.53;88.26;100211.62;1780348;79;21107;-72
2020/12/29 01:31:30;;;;;;;34.18;19.73;;;;;;;1.55;88.16;100196.96;1786606;78;21642;-73
2020/12/29 01:34:01;;;;;;;35.15;21.33;;;;;;;1.55;88.12;100204.34;1789272;78;22499;-72
2020/12/29 01:36:28;;;;;;;34.05;20.30;;;;;;;1.62;88.11;100197.75;1768855;79;21061;-73
2020/12/29 01:38:56;;;;;;;34.18;19.35;;;;;;;1.69;88.08;100199.05;1795436;78;21192;-73
2020/12/29 01:41:23;;;;;;;37.17;19.60;;;;;;;1.75;88.02;100198.22;1803805;77;21178;-73
2020/12/29 01:43:51;;;;;;;36.58;20.85;;;;;;;1.76;87.91;100204.58;1773426;80;21191;-73
2020/12/29 01:46:19;;;;;;;37.10;20.00;;;;;;;1.75;87.76;100198.22;1789395;78;21388;-73
2020/12/29 01:48:46;;;;;;;30.20;18.48;;;;;;;1.72;87.68;100193.36;1787707;78;21191;-74
2020/12/29 01:51:14;;;;;;;30.12;18.10;;;;;;;1.68;87.64;100180.30;1780401;78;21171;-72
2020/12/29 01:53:42;;;;;;;30.40;18.92;;;;;;;1.61;87.55;100175.05;1785812;79;21208;-73
2020/12/29 01:56:11;;;;;;;30.15;18.20;;;;;;;1.54;87.53;100168.48;1791646;78;21176;-73
2020/12/29 01:58:41;;;;;;;28.20;16.10;;;;;;;1.50;87.50;100167.80;1784146;79;21811;-73
2020/12/29 02:01:09;;;;;;;30.35;17.75;;;;;;;1.47;87.57;100161.12;1782111;78;21176;-74
2020/12/29 02:03:38;;;;;;;28.65;16.35;;;;;;;1.45;87.63;100169.75;1793763;78;21207;-74
2020/12/29 02:06:05;;;;;;;27.95;17.37;;;;;;;1.45;87.65;100156.59;1794106;79;21207;-74
2020/12/29 02:08:33;;;;;;;30.52;18.02;;;;;;;1.43;87.65;100149.40;1792020;79;21158;-74
2020/12/29 02:11:01;;;;;;;33.05;19.65;;;;;;;1.39;87.65;100153.47;1764180;79;21959;-74
2020/12/29 02:13:28;;;;;;;26.73;16.27;;;;;;;1.37;87.72;100151.53;1782380;78;21226;-73
2020/12/29 02:15:57;;;;;;;32.28;19.42;;;;;;;1.40;87.80;100149.30;1778783;78;21164;-73
2020/12/29 02:18:24;;;;;;;29.12;16.57;;;;;;;1.38;87.77;100139.98;1781582;78;21175;-74
2020/12/29 02:20:52;;;;;;;30.43;18.20;;;;;;;1.38;87.83;100142.63;1779877;79;21222;-74
2020/12/29 02:23:19;;;;;;;31.33;17.15;;;;;;;1.39;87.83;100142.94;1785966;78;22264;-73
2020/12/29 02:25:47;;;;;;;27.82;16.23;;;;;;;1.39;87.88;100144.26;1812623;78;21224;-73
2020/12/29 02:28:15;;;;;;;28.10;16.67;;;;;;;1.38;87.87;100134.73;1777682;79;21604;-73
2020/12/29 02:30:44;;;;;;;25.82;15.48;;;;;;;1.35;87.90;100143.86;1777256;78;21115;-74
2020/12/29 02:33:12;;;;;;;29.95;17.95;;;;;;;1.35;87.93;100135.14;1780680;79;21126;-72
2020/12/29 02:35:40;;;;;;;28.85;17.12;;;;;;;1.34;87.99;100151.95;1775654;80;22793;-73
2020/12/29 02:38:08;;;;;;;26.00;16.30;;;;;;;1.34;88.05;100150.63;1779246;80;21183;-73
2020/12/29 02:40:36;;;;;;;26.97;16.15;;;;;;;1.33;88.02;100155.61;1770152;79;21173;-75
2020/12/29 02:43:04;;;;;;;31.68;17.52;;;;;;;1.31;88.04;100145.78;1764445;80;21181;-73
2020/12/29 02:45:31;;;;;;;28.02;16.77;;;;;;;1.27;88.11;100141.44;1777481;79;21156;-73
2020/12/29 02:48:00;;;;;;;25.72;15.53;;;;;;;1.26;88.18;100137.20;1774113;79;21351;-73
2020/12/29 02:50:31;;;;;;;27.55;16.10;;;;;;;1.25;88.20;100135.59;1764294;80;21180;-74
2020/12/29 02:52:58;;;;;;;28.10;16.02;;;;;;;1.26;88.25;100136.40;1765767;77;21093;-73
2020/12/29 02:55:27;;;;;;;27.90;16.62;;;;;;;1.23;88.27;100128.91;1775326;80;21125;-72
2020/12/29 02:57:55;;;;;;;28.90;17.20;;;;;;;1.22;88.31;100129.91;1762722;80;21647;-73
2020/12/29 03:00:23;;;;;;;31.77;18.35;;;;;;;1.24;88.34;100135.27;1738635;81;21194;-74
2020/12/29 03:02:52;;;;;;;31.10;18.40;;;;;;;1.27;88.37;100127.48;1749497;81;21196;-73
2020/12/29 03:05:19;;;;;;;33.50;18.92;;;;;;;1.31;88.36;100141.32;1703022;82;21194;-73
2020/12/29 03:07:47;;;;;;;29.05;16.90;;;;;;;1.33;88.39;100130.61;1689644;84;21246;-73
2020/12/29 03:10:15;;;;;;;25.70;15.90;;;;;;;1.35;88.36;100120.66;1672725;84;21540;-74
2020/12/29 03:12:43;;;;;;;29.52;17.75;;;;;;;1.33;88.28;100130.61;1673762;85;21207;-73
2020/12/29 03:15:11;;;;;;;26.48;14.43;;;;;;;1.32;88.30;100130.31;1669040;84;21212;-74
2020/12/29 03:17:39;;;;;;;28.52;17.75;;;;;;;1.35;88.32;100126.77;1662143;84;21727;-72
2020/12/29 03:20:06;;;;;;;30.90;18.92;;;;;;;1.33;88.26;100134.05;1662859;85;21203;-73
2020/12/29 03:22:35;;;;;;;28.35;16.87;;;;;;;1.32;88.24;100134.27;1676162;85;21317;-73
2020/12/29 03:25:04;;;;;;;26.73;15.50;;;;;;;1.35;88.24;100132.50;1671669;84;22104;-74
2020/12/29 03:27:32;;;;;;;28.45;16.93;;;;;;;1.40;88.23;100137.97;1677558;84;21700;-74
2020/12/29 03:29:59;;;;;;;25.80;16.17;;;;;;;1.39;88.14;100129.27;1713512;83;21153;-73
2020/12/29 03:32:27;;;;;;;26.70;15.13;;;;;;;1.38;88.11;100128.14;1712284;82;21118;-73
2020/12/29 03:34:54;;;;;;;24.50;15.60;;;;;;;1.39;88.07;100123.20;1706973;83;21123;-73
2020/12/29 03:37:24;;;;;;;27.70;17.57;;;;;;;1.37;87.98;100122.59;1715722;82;21210;-72
2020/12/29 03:39:51;;;;;;;23.85;14.75;;;;;;;1.31;87.92;100109.75;1716531;83;21208;-72
2020/12/29 03:42:19;;;;;;;23.70;15.23;;;;;;;1.29;87.98;100096.52;1696558;82;21610;-72
2020/12/29 03:44:48;;;;;;;19.65;12.90;;;;;;;1.24;87.98;100098.44;1714039;82;21220;-73
2020/12/29 03:47:16;;;;;;;23.18;14.28;;;;;;;1.24;88.02;100094.50;1715886;82;21693;-71
2020/12/29 03:49:45;;;;;;;23.83;15.05;;;;;;;1.19;88.03;100089.06;1718532;83;21175;-71
2020/12/29 03:52:13;;;;;;;25.12;16.20;;;;;;;1.16;88.08;100096.05;1714361;82;21367;-72
2020/12/29 03:54:41;;;;;;;21.02;14.18;;;;;;;1.13;88.13;100109.61;1713384;83;21454;-73
2020/12/29 03:57:09;;;;;;;21.97;14.23;;;;;;;1.16;88.17;100129.73;1708761;82;21151;-73
2020/12/29 03:59:37;;;;;;;23.75;15.95;;;;;;;1.22;88.24;100128.59;1716048;82;21206;-74
2020/12/29 04:02:05;;;;;;;20.70;13.93;;;;;;;1.28;88.25;100123.83;1715424;82;21146;-74
2020/12/29 04:04:34;;;;;;;22.45;15.10;;;;;;;1.34;88.28;100136.16;1714821;83;21172;-74
2020/12/29 04:07:03;;;;;;;22.70;15.15;;;;;;;1.40;88.20;100134.83;1707338;83;21103;-73
2020/12/29 04:09:31;;;;;;;22.73;14.78;;;;;;;1.41;88.07;100118.53;1715831;82;21155;-73
2020/12/29 04:11:59;;;;;;;20.02;12.75;;;;;;;1.39;88.03;100114.00;1719159;82;21067;-74
2020/12/29 04:14:27;;;;;;;21.20;14.28;;;;;;;1.37;87.99;100116.81;1707547;82;21375;-74
2020/12/29 04:16:55;;;;;;;21.50;13.78;;;;;;;1.34;87.92;100103.27;1715714;82;21107;-74
2020/12/29 04:19:23;;;;;;;18.82;12.35;;;;;;;1.31;87.93;100100.54;1696709;82;21638;-74
2020/12/29 04:21:51;;;;;;;23.20;14.80;;;;;;;1.29;87.89;100096.52;1720026;83;21082;-73
2020/12/29 04:24:19;;;;;;;21.97;14.70;;;;;;;1.24;87.91;100093.18;1706702;82;21099;-73
2020/12/29 04:26:47;;;;;;;25.08;14.70;;;;;;;1.19;87.92;100094.33;1709027;82;21825;-73
2020/12/29 04:29:15;;;;;;;25.40;16.20;;;;;;;1.16;87.96;100089.47;1716450;82;21128;-73
2020/12/29 04:31:43;;;;;;;27.32;16.45;;;;;;;1.12;87.98;100090.39;1705846;83;21227;-73
2020/12/29 04:34:11;;;;;;;26.68;16.25;;;;;;;1.10;88.04;100085.84;1704751;82;21201;-73
2020/12/29 04:36:39;;;;;;;27.10;16.77;;;;;;;1.07;88.13;100084.94;1706303;83;21122;-73
2020/12/29 04:39:06;;;;;;;27.87;17.67;;;;;;;1.06;88.14;100098.30;1684055;83;21499;-72
2020/12/29 04:41:36;;;;;;;30.23;19.05;;;;;;;1.08;88.21;100089.68;1706465;82;21569;-73
2020/12/29 04:44:04;;;;;;;30.65;19.23;;;;;;;1.08;88.22;100085.22;1718876;82;21091;-73
2020/12/29 04:46:32;;;;;;;25.65;15.50;;;;;;;1.06;88.23;100079.38;1686903;83;21724;-73
2020/12/29 04:49:00;;;;;;;29.75;17.37;;;;;;;1.05;88.26;100074.31;1686192;83;21495;-73
2020/12/29 04:51:28;;;;;;;31.60;19.17;;;;;;;1.05;88.29;100079.06;1717686;82;21891;-73
2020/12/29 04:53:58;;;;;;;35.20;20.97;;;;;;;1.02;88.35;100073.41;1711260;82;21161;-73
2020/12/29 04:56:30;;;;;;;30.57;17.55;;;;;;;1.01;88.41;100074.43;1697818;83;21199;-74
2020/12/29 04:59:00;;;;;;;29.00;18.02;;;;;;;1.02;88.46;100071.61;1700304;82;21699;-73
2020/12/29 05:01:34;;;;;;;28.30;17.05;;;;;;;1.05;88.50;100080.38;1700624;82;21180;-72
2020/12/29 05:04:02;;;;;;;33.10;19.40;;;;;;;1.07;88.52;100058.63;1700617;82;21377;-76
2020/12/29 05:06:30;;;;;;;29.18;18.27;;;;;;;1.05;88.52;100058.02;1695351;83;21565;-73
2020/12/29 05:08:57;;;;;;;31.87;19.27;;;;;;;1.01;88.56;100056.83;1721926;81;21144;-73
2020/12/29 05:11:25;;;;;;;34.90;20.77;;;;;;;1.04;88.63;100070.87;1700832;82;21117;-73
2020/12/29 05:13:55;;;;;;;33.92;19.95;;;;;;;1.05;88.63;100074.31;1728591;81;21124;-73
2020/12/29 05:16:23;;;;;;;36.75;22.00;;;;;;;1.08;88.66;100079.96;1722611;81;21826;-73
2020/12/29 05:18:51;;;;;;;34.90;19.98;;;;;;;1.11;88.72;100086.12;1669103;81;21269;-73
2020/12/29 05:21:19;;;;;;;33.08;19.42;;;;;;;1.15;88.68;100092.62;1677043;83;21089;-74
2020/12/29 05:23:46;;;;;;;35.43;20.57;;;;;;;1.20;88.67;100083.29;1715350;81;21203;-74
2020/12/29 05:26:14;;;;;;;39.25;21.90;;;;;;;1.19;88.64;100089.58;1675744;83;21184;-73
2020/12/29 05:28:45;;;;;;;35.83;20.37;;;;;;;1.13;88.62;100072.28;1725443;82;21204;-73
2020/12/29 05:31:14;;;;;;;34.78;21.68;;;;;;;1.12;88.64;100074.61;1700732;81;21549;-74
2020/12/29 05:33:42;;;;;;;40.78;23.60;;;;;;;1.08;88.66;100073.39;1722196;81;21111;-74
2020/12/29 05:36:09;;;;;;;35.63;19.52;;;;;;;1.07;88.71;100065.20;1711034;82;21648;-74
2020/12/29 05:38:41;;;;;;;35.63;21.00;;;;;;;1.04;88.76;100062.98;1691919;83;21272;-74
2020/12/29 05:41:13;;;;;;;37.80;21.65;;;;;;;1.04;88.85;100066.93;1698655;83;22327;-74
2020/12/29 05:43:42;;;;;;;37.25;21.45;;;;;;;1.06;88.90;100100.42;1723116;81;21570;-74
2020/12/29 05:46:10;;;;;;;40.58;23.40;;;;;;;1.12;88.94;100106.69;1674981;82;21168;-74
2020/12/29 05:48:38;;;;;;;39.63;22.22;;;;;;;1.15;88.96;100104.45;1673293;83;21208;-75
2020/12/29 05:51:14;;;;;;;30.88;18.42;;;;;;;1.16;88.95;100091.59;1698046;83;21572;-74
2020/12/29 05:53:42;;;;;;;29.63;17.77;;;;;;;1.17;88.92;100089.25;1723728;81;22767;-74
2020/12/29 05:56:10;;;;;;;27.73;15.80;;;;;;;1.16;88.93;100078.95;1725866;83;21080;-74
2020/12/29 05:58:38;;;;;;;36.60;21.17;;;;;;;1.15;88.96;100078.15;1666604;83;21202;-74
2020/12/29 06:01:05;;;;;;;26.23;15.10;;;;;;;1.13;88.97;100080.17;1685345;83;21203;-75
2020/12/29 06:03:34;;;;;;;27.05;16.00;;;;;;;1.14;89.01;100080.97;1723955;81;21262;-74
2020/12/29 06:06:07;;;;;;;30.37;17.32;;;;;;;1.13;89.04;100073.59;1697784;83;21397;-74
2020/12/29 06:08:36;;;;;;;28.62;17.12;;;;;;;1.10;89.11;100067.42;1714999;82;21174;-74
2020/12/29 06:11:11;;;;;;;30.12;17.10;;;;;;;1.06;89.16;100058.85;1726028;81;21576;-75
2020/12/29 06:13:41;;;;;;;24.55;14.80;;;;;;;1.02;89.25;100063.72;1711826;81;21221;-74
2020/12/29 06:16:09;;;;;;;25.02;14.30;;;;;;;1.03;89.33;100054.80;1651907;83;21124;-75
2020/12/29 06:18:37;;;;;;;27.02;16.27;;;;;;;1.03;89.45;100055.31;1674069;83;21254;-75
2020/12/29 06:21:08;;;;;;;26.20;15.25;;;;;;;1.03;89.52;100051.38;1726489;82;21157;-76
2020/12/29 06:23:48;;;;;;;24.25;14.18;;;;;;;1.05;89.57;100046.19;1713373;81;21076;-74
2020/12/29 06:26:19;;;;;;;25.25;14.73;;;;;;;1.07;89.62;100056.00;1706631;83;21156;-74
2020/12/29 06:28:52;;;;;;;27.37;16.82;;;;;;;1.11;89.67;100072.98;1718875;82;21152;-75
2020/12/29 06:31:27;;;;;;;24.30;14.93;;;;;;;1.14;89.73;100058.09;1717429;81;21224;-74
2020/12/29 06:33:57;;;;;;;22.70;13.58;;;;;;;1.17;89.72;100057.69;1719674;81;21132;-74
2020/12/29 06:36:28;;;;;;;19.00;11.90;;;;;;;1.16;89.71;100058.71;1713313;81;21147;-74
2020/12/29 06:39:04;;;;;;;22.55;13.65;;;;;;;1.15;89.78;100046.58;1724010;83;21176;-74
2020/12/29 06:41:34;;;;;;;20.43;12.03;;;;;;;1.16;89.81;100043.44;1714838;81;21074;-75
2020/12/29 06:44:03;;;;;;;23.15;14.47;;;;;;;1.16;89.88;100041.61;1714537;81;21379;-73
2020/12/29 06:46:31;;;;;;;19.10;11.97;;;;;;;1.12;89.90;100037.79;1724924;81;21251;-74
2020/12/29 06:49:20;;;;;;;22.55;14.05;;;;;;;1.14;89.98;100039.69;1722460;82;21267;-74
2020/12/29 06:51:50;;;;;;;21.90;13.18;;;;;;;1.13;90.02;100039.39;1710182;81;21247;-74
2020/12/29 06:54:21;;;;;;;17.95;10.82;;;;;;;1.13;90.06;100043.86;1708812;83;21178;-73
2020/12/29 06:56:59;;;;;;;19.50;11.88;;;;;;;1.14;90.10;100046.27;1708830;81;21157;-73
2020/12/29 06:59:42;;;;;;;21.42;13.40;;;;;;;1.15;90.13;100045.75;1707495;83;21187;-74
2020/12/29 07:02:22;;;;;;;18.75;11.45;;;;;;;1.17;90.17;100052.94;1729015;81;21170;-74
2020/12/29 07:04:54;;;;;;;20.57;12.68;;;;;;;1.19;90.22;100058.01;1729126;81;21215;-74
2020/12/29 07:07:30;;;;;;;19.92;12.45;;;;;;;1.22;90.25;100061.52;1729343;83;21172;-74
2020/12/29 07:10:11;;;;;;;21.90;13.40;;;;;;;1.21;90.25;100057.27;1726383;81;21389;-75
2020/12/29 07:12:48;;;;;;;23.77;14.68;;;;;;;1.21;90.33;100064.66;1730209;81;21113;-74
2020/12/29 07:15:22;;;;;;;22.22;13.90;;;;;;;1.23;90.36;100054.74;1728997;81;21592;-72
2020/12/29 07:18:01;;;;;;;22.70;13.68;;;;;;;1.25;90.36;100044.00;1728521;81;21592;-74
2020/12/29 07:20:34;;;;;;;27.85;16.65;;;;;;;1.25;90.39;100040.05;1724778;83;21154;-74
2020/12/29 07:23:08;;;;;;;26.95;14.65;;;;;;;1.23;90.40;100048.17;1710465;81;21364;-73
2020/12/29 07:25:36;;;;;;;25.85;14.85;;;;;;;1.21;90.44;100051.50;1680138;84;21154;-74
2020/12/29 07:28:06;;;;;;;30.62;16.65;;;;;;;1.19;90.46;100048.29;1674094;84;21210;-74
2020/12/29 07:30:35;;;;;;;27.80;15.90;;;;;;;1.20;90.49;100050.41;1721232;81;21624;-72
2020/12/29 07:33:05;;;;;;;25.45;14.95;;;;;;;1.22;90.52;100056.25;1722758;83;21639;-72
2020/12/29 07:35:38;;;;;;;27.58;15.98;;;;;;;1.24;90.55;100052.91;1724343;81;21127;-73
2020/12/29 07:38:13;;;;;;;28.05;16.48;;;;;;;1.23;90.54;100047.36;1715097;81;21171;-72
2020/12/29 07:40:41;;;;;;;25.72;15.15;;;;;;;1.24;90.59;100059.49;1702842;82;21210;-73
2020/12/29 07:43:09;;;;;;;24.37;13.93;;;;;;;1.27;90.67;100059.08;1709915;82;21123;-74
2020/12/29 07:45:37;;;;;;;22.60;13.55;;;;;;;1.31;90.68;100052.38;1698833;82;22412;-73
2020/12/29 07:48:06;;;;;;;21.85;13.18;;;;;;;1.33;90.71;100051.67;1691859;82;21269;-74
2020/12/29 07:50:36;;;;;;;22.58;13.10;;;;;;;1.32;90.71;100033.77;1698576;82;21195;-74
2020/12/29 07:53:06;;;;;;;21.48;11.95;;;;;;;1.35;90.74;100030.72;1696566;82;21188;-73
2020/12/29 07:55:34;;;;;;;19.62;11.05;;;;;;;1.34;90.75;100033.55;1690882;83;21207;-73
2020/12/29 07:58:06;;;;;;;23.12;14.38;;;;;;;1.34;90.73;100025.14;1698474;82;21211;-73
2020/12/29 08:00:36;;;;;;;20.55;12.55;;;;;;;1.35;90.74;100027.26;1696814;82;21383;-73
2020/12/29 08:03:04;;;;;;;21.25;11.68;;;;;;;1.33;90.75;100034.57;1690030;82;21482;-73
2020/12/29 08:05:33;;;;;;;21.68;12.93;;;;;;;1.34;90.76;100038.81;1695700;82;21215;-73
2020/12/29 08:08:06;;;;;;;22.07;13.03;;;;;;;1.35;90.74;100037.30;1693284;83;21137;-74
2020/12/29 08:10:40;;;;;;;22.65;13.25;;;;;;;1.35;90.74;100025.94;1693558;83;21589;-73
2020/12/29 08:13:09;;;;;;;22.15;13.13;;;;;;;1.36;90.78;100027.58;1693660;82;21380;-72
2020/12/29 08:15:45;;;;;;;18.80;11.60;;;;;;;1.37;90.82;100009.45;1682246;82;21224;-74
2020/12/29 08:18:19;;;;;;;18.85;10.72;;;;;;;1.41;90.82;100014.58;1698346;82;21834;-73
2020/12/29 08:20:54;;;;;;;19.10;11.05;;;;;;;1.44;90.84;99996.26;1692877;82;21224;-75
2020/12/29 08:23:23;;;;;;;20.32;12.88;;;;;;;1.41;90.81;99996.16;1693596;82;21224;-73
2020/12/29 08:26:02;;;;;;;20.85;12.25;;;;;;;1.38;90.85;99977.67;1697109;82;21374;-73
2020/12/29 08:28:33;;;;;;;19.95;12.03;;;;;;;1.37;90.88;99983.94;1681674;82;21671;-74
2020/12/29 08:31:04;;;;;;;16.35;11.08;;;;;;;1.36;90.88;99988.11;1691243;82;21212;-73
2020/12/29 08:33:32;;;;;;;19.30;11.40;;;;;;;1.36;90.97;99975.75;1696605;83;21193;-73
2020/12/29 08:36:01;;;;;;;16.27;10.63;;;;;;;1.38;91.03;99982.11;1705285;82;21190;-73
2020/12/29 08:38:44;;;;;;;17.25;10.10;;;;;;;1.38;91.05;99979.48;1731738;81;21372;-73
2020/12/29 08:41:22;;;;;;;20.08;11.12;;;;;;;1.41;91.09;99990.90;1723826;81;21136;-72
2020/12/29 08:43:51;;;;;;;18.67;11.48;;;;;;;1.42;91.13;99980.69;1720839;83;21171;-74
2020/12/29 08:46:23;;;;;;;16.93;10.98;;;;;;;1.44;91.14;99969.43;1719364;81;22196;-73
2020/12/29 08:51:45;;;;;;;15.80;10.63;;;;;;;1.54;91.22;99951.34;1760478;79;23391;-75
2020/12/29 08:54:18;;;;;;;17.10;10.55;;;;;;;1.50;91.21;99948.05;1744598;82;21172;-75
2020/12/29 08:56:47;;;;;;;14.93;9.38;;;;;;;1.50;91.24;99937.01;1748891;82;21479;-75
2020/12/29 08:59:22;;;;;;;15.80;9.00;;;;;;;1.52;91.28;99947.34;1753343;80;21206;-73
2020/12/29 09:01:56;;;;;;;14.30;8.48;;;;;;;1.54;91.32;99941.33;1762749;81;21176;-75
2020/12/29 09:04:36;;;;;;;14.50;9.23;;;;;;;1.55;91.35;99936.39;1746134;81;21148;-75
2020/12/29 09:07:13;;;;;;;15.95;9.93;;;;;;;1.57;91.34;99935.13;1739431;81;21148;-75
2020/12/29 09:09:58;;;;;;;16.93;10.50;;;;;;;1.60;91.38;99924.17;1713180;82;21381;-73
2020/12/29 09:12:30;;;;;;;17.25;10.90;;;;;;;1.65;91.41;99924.87;1728004;81;21171;-74
2020/12/29 09:15:01;;;;;;;15.70;8.93;;;;;;;1.74;91.44;99914.86;1729621;81;22250;-76
2020/12/29 09:17:31;;;;;;;16.82;9.95;;;;;;;1.78;91.39;99912.92;1726971;81;21682;-75
2020/12/29 09:20:29;;;;;;;14.10;9.00;;;;;;;1.77;91.30;99914.44;1738239;81;21657;-75
2020/12/29 09:23:01;;;;;;;14.78;8.50;;;;;;;1.75;91.25;99912.55;1726823;81;21500;-74
2020/12/29 09:25:35;;;;;;;16.23;8.93;;;;;;;1.69;91.16;99906.82;1739423;81;21650;-75
2020/12/29 09:31:10;;;;;;;16.67;9.97;;;;;;;1.68;91.17;99902.55;1773026;78;23233;-75
2020/12/29 09:33:39;;;;;;;16.12;10.23;;;;;;;1.61;91.17;99906.06;1739059;82;21188;-74
2020/12/29 09:36:10;;;;;;;15.08;9.23;;;;;;;1.62;91.18;99889.25;1749897;81;21374;-74
2020/12/29 09:38:38;;;;;;;16.25;9.60;;;;;;;1.62;91.21;99889.25;1772497;80;21717;-74
2020/12/29 09:41:06;;;;;;;16.00;9.75;;;;;;;1.62;91.25;99880.03;1763277;79;21198;-76
2020/12/29 09:43:34;;;;;;;14.10;9.00;;;;;;;1.62;91.25;99863.44;1765900;80;21170;-75
2020/12/29 09:46:02;;;;;;;13.60;8.60;;;;;;;1.62;91.32;99858.17;1771118;80;21150;-76
2020/12/29 09:48:30;;;;;;;13.28;8.40;;;;;;;1.63;91.37;99866.36;1770346;80;21654;-76
2020/12/29 09:50:59;;;;;;;12.78;7.58;;;;;;;1.66;91.44;99861.18;1755009;79;21214;-74
2020/12/29 09:53:27;;;;;;;12.60;8.13;;;;;;;1.73;91.49;99863.24;1733642;82;21166;-74
2020/12/29 09:55:56;;;;;;;13.93;9.43;;;;;;;1.80;91.50;99848.19;1749802;81;21186;-75
2020/12/29 09:58:24;;;;;;;13.72;9.23;;;;;;;1.82;91.51;99836.94;1752340;81;21147;-75
2020/12/29 10:00:52;;;;;;;11.15;7.58;;;;;;;1.84;91.51;99839.66;1734492;82;21927;-74
2020/12/29 10:03:20;;;;;;;13.55;9.10;;;;;;;1.91;91.53;99837.44;1757308;81;21180;-75
2020/12/29 10:05:50;;;;;;;14.47;9.30;;;;;;;1.92;91.51;99817.49;1764377;81;21930;-74
2020/12/29 10:08:18;;;;;;;11.45;7.75;;;;;;;1.93;91.50;99806.44;1761901;79;21164;-73
2020/12/29 10:10:46;;;;;;;11.60;7.78;;;;;;;1.98;91.51;99802.66;1762362;81;21199;-74
2020/12/29 10:13:14;;;;;;;14.65;8.90;;;;;;;2.02;91.50;99805.13;1755842;81;21392;-75
2020/12/29 10:15:42;;;;;;;10.82;6.45;;;;;;;2.03;91.46;99807.53;1752006;81;21143;-75
2020/12/29 10:18:10;;;;;;;11.53;7.50;;;;;;;2.04;91.46;99797.31;1745615;79;21144;-74
2020/12/29 10:20:37;;;;;;;12.53;8.43;;;;;;;2.09;91.51;99785.59;1743033;81;21190;-74
2020/12/29 10:23:05;;;;;;;11.55;8.00;;;;;;;2.12;91.48;99800.16;1747657;81;21119;-74
2020/12/29 10:25:33;;;;;;;11.03;7.62;;;;;;;2.14;91.48;99797.29;1763084;81;22698;-74
2020/12/29 10:28:01;;;;;;;12.37;7.70;;;;;;;2.17;91.48;99800.28;1755916;79;21203;-74
2020/12/29 10:30:28;;;;;;;10.90;7.67;;;;;;;2.22;91.45;99799.64;1736231;81;21171;-74
2020/12/29 10:32:56;;;;;;;12.18;7.72;;;;;;;2.25;91.41;99776.81;1733168;82;21112;-75
2020/12/29 10:35:24;;;;;;;12.07;6.78;;;;;;;2.24;91.36;99762.03;1729799;81;21188;-74
2020/12/29 10:37:52;;;;;;;12.70;7.37;;;;;;;2.23;91.32;99761.72;1736333;81;21182;-75
2020/12/29 10:40:20;;;;;;;12.55;7.72;;;;;;;2.23;91.31;99765.67;1736388;81;21226;-74
2020/12/29 10:42:48;;;;;;;11.38;7.35;;;;;;;2.24;91.32;99767.30;1734823;81;21789;-75
2020/12/29 10:45:16;;;;;;;9.63;6.45;;;;;;;2.26;91.34;99764.72;1735219;81;21179;-74
2020/12/29 10:47:44;;;;;;;9.73;6.35;;;;;;;2.26;91.30;99754.69;1735773;81;21575;-75
2020/12/29 10:50:11;;;;;;;10.23;6.80;;;;;;;2.27;91.32;99770.30;1735640;81;21366;-75
2020/12/29 10:52:39;;;;;;;10.45;7.25;;;;;;;2.30;91.34;99767.70;1732999;82;21167;-76
2020/12/29 10:55:07;;;;;;;13.60;8.45;;;;;;;2.33;91.35;99769.91;1733388;81;21188;-75
2020/12/29 10:57:34;;;;;;;11.80;7.90;;;;;;;2.37;91.35;99773.72;1729819;81;21124;-77
2020/12/29 11:00:03;;;;;;;9.93;7.08;;;;;;;2.39;91.30;99778.76;1726498;81;21649;-75
2020/12/29 11:02:31;;;;;;;11.97;8.15;;;;;;;2.42;91.26;99764.63;1735639;82;21360;-79
2020/12/29 11:04:58;;;;;;;12.23;8.23;;;;;;;2.44;91.19;99782.34;1731416;81;21213;-76
2020/12/29 11:07:26;;;;;;;11.85;7.62;;;;;;;2.46;91.18;99790.02;1774781;79;21138;-75
2020/12/29 11:09:56;;;;;;;11.00;7.00;;;;;;;2.49;91.19;99765.86;1762516;80;21178;-74
2020/12/29 11:12:24;;;;;;;12.45;8.15;;;;;;;2.51;91.07;99781.74;1734956;81;21219;-75
2020/12/29 11:14:52;;;;;;;11.90;8.05;;;;;;;2.52;91.06;99776.75;1773824;79;21427;-75
2020/12/29 11:17:22;;;;;;;11.75;7.75;;;;;;;2.50;90.98;99769.60;1769419;79;21212;-76
2020/12/29 11:19:51;;;;;;;11.43;7.30;;;;;;;2.51;91.01;99764.61;1771935;79;27104;-73
2020/12/29 11:22:19;;;;;;;13.95;8.53;;;;;;;2.55;90.96;99763.13;1750958;80;21214;-74
2020/12/29 11:24:47;;;;;;;10.80;7.03;;;;;;;2.53;90.88;99757.30;1772665;79;21174;-75
2020/12/29 11:27:14;;;;;;;10.30;7.03;;;;;;;2.51;90.87;99762.49;1775729;79;21488;-74
2020/12/29 11:29:43;;;;;;;11.38;7.65;;;;;;;2.46;90.82;99757.87;1778622;79;21194;-75
2020/12/29 11:32:11;;;;;;;9.85;6.65;;;;;;;2.44;90.86;99767.85;1769347;80;21638;-74
2020/12/29 11:34:39;;;;;;;11.63;8.00;;;;;;;2.49;90.95;99760.06;1776518;80;21198;-74
2020/12/29 11:37:07;;;;;;;10.28;7.30;;;;;;;2.54;90.99;99756.25;1779897;80;21163;-75
2020/12/29 11:39:34;;;;;;;11.83;7.67;;;;;;;2.56;90.98;99754.19;1780723;80;21435;-74